createdAt,value
2017-01-12T00:00:30.108Z,942.88
2017-01-12T00:01:30.094Z,942.86
2017-01-12T00:02:30.076Z,942.85
2017-01-12T00:03:30.059Z,942.88
2017-01-12T00:04:30.041Z,942.86
2017-01-12T00:05:30.025Z,942.93
2017-01-12T00:06:30.007Z,942.89
2017-01-12T00:07:29.992Z,942.88
2017-01-12T00:08:29.975Z,942.91
2017-01-12T00:09:29.958Z,942.92
2017-01-12T00:10:29.941Z,942.98
2017-01-12T00:11:29.924Z,942.96
2017-01-12T00:12:29.907Z,943
2017-01-12T00:13:29.893Z,942.97
2017-01-12T00:14:29.874Z,942.95
2017-01-12T00:15:29.858Z,943.01
2017-01-12T00:16:29.840Z,942.96
2017-01-12T00:17:29.824Z,942.9
2017-01-12T00:18:29.807Z,942.94
2017-01-12T00:19:29.789Z,942.98
2017-01-12T00:20:29.774Z,942.95
2017-01-12T00:21:29.756Z,942.95
2017-01-12T00:22:29.739Z,943.01
2017-01-12T00:23:29.722Z,943
2017-01-12T00:24:29.705Z,943.01
2017-01-12T00:25:29.690Z,942.98
2017-01-12T00:26:29.672Z,943.03
2017-01-12T00:27:29.655Z,943.01
2017-01-12T00:28:29.643Z,943.1
2017-01-12T00:29:29.622Z,943.04
2017-01-12T00:30:29.604Z,943.06
2017-01-12T00:31:29.587Z,943.06
2017-01-12T00:32:29.571Z,943.05
2017-01-12T00:33:29.554Z,943.06
2017-01-12T00:34:29.538Z,943.06
2017-01-12T00:35:29.522Z,943.06
2017-01-12T00:36:29.504Z,943.03
2017-01-12T00:37:29.492Z,942.95
2017-01-12T00:38:29.470Z,943.01
2017-01-12T00:39:29.454Z,943.02
2017-01-12T00:40:29.437Z,943.03
2017-01-12T00:41:29.419Z,942.92
2017-01-12T00:42:29.404Z,942.94
2017-01-12T00:43:29.387Z,943.02
2017-01-12T00:44:29.369Z,943.01
2017-01-12T00:45:29.353Z,943.02
2017-01-12T00:46:29.337Z,943
2017-01-12T00:47:29.319Z,942.98
2017-01-12T00:48:29.301Z,942.96
2017-01-12T00:49:29.286Z,943
2017-01-12T00:50:29.270Z,943.07
2017-01-12T00:51:29.254Z,943.1
2017-01-12T00:52:29.235Z,943.1
2017-01-12T00:53:29.220Z,943.06
2017-01-12T00:54:29.204Z,943.08
2017-01-12T00:55:29.187Z,943.16
2017-01-12T00:56:29.169Z,943.14
2017-01-12T00:57:29.154Z,943.22
2017-01-12T00:58:29.137Z,943.2
2017-01-12T00:59:29.469Z,943.32
2017-01-12T01:00:29.102Z,943.28
2017-01-12T01:01:29.086Z,943.26
2017-01-12T01:02:29.070Z,943.32
2017-01-12T01:03:29.052Z,943.26
2017-01-12T01:04:29.036Z,943.21
2017-01-12T01:05:29.020Z,943.25
2017-01-12T01:06:29.003Z,943.34
2017-01-12T01:07:28.987Z,943.35
2017-01-12T01:08:28.969Z,943.37
2017-01-12T01:09:28.954Z,943.37
2017-01-12T01:10:28.936Z,943.42
2017-01-12T01:11:28.920Z,943.42
2017-01-12T01:12:28.903Z,943.48
2017-01-12T01:13:28.887Z,943.51
2017-01-12T01:14:28.870Z,943.51
2017-01-12T01:15:28.854Z,943.51
2017-01-12T01:16:28.837Z,943.54
2017-01-12T01:17:28.820Z,943.57
2017-01-12T01:18:28.803Z,943.52
2017-01-12T01:19:28.786Z,943.51
2017-01-12T01:20:28.771Z,943.5
2017-01-12T01:21:28.758Z,943.54
2017-01-12T01:22:28.737Z,943.64
2017-01-12T01:23:28.721Z,943.64
2017-01-12T01:24:28.704Z,943.65
2017-01-12T01:25:28.688Z,943.66
2017-01-12T01:26:28.673Z,943.64
2017-01-12T01:27:28.655Z,943.65
2017-01-12T01:28:28.637Z,943.59
2017-01-12T01:29:28.623Z,943.6
2017-01-12T01:30:28.606Z,943.6
2017-01-12T01:31:28.590Z,943.66
2017-01-12T01:32:28.573Z,943.65
2017-01-12T01:33:28.556Z,943.69
2017-01-12T01:34:28.539Z,943.72
2017-01-12T01:35:28.522Z,943.77
2017-01-12T01:36:28.507Z,943.75
2017-01-12T01:37:28.490Z,943.82
2017-01-12T01:38:28.475Z,943.83
2017-01-12T01:39:28.456Z,943.88
2017-01-12T01:40:28.440Z,943.92
2017-01-12T01:41:28.426Z,943.95
2017-01-12T01:42:28.408Z,943.93
2017-01-12T01:43:28.390Z,943.9
2017-01-12T01:44:28.375Z,943.98
2017-01-12T01:45:28.359Z,944.03
2017-01-12T01:46:28.341Z,944.02
2017-01-12T01:47:28.325Z,944.02
2017-01-12T01:48:28.309Z,944.07
2017-01-12T01:49:28.295Z,944.1
2017-01-12T01:50:28.276Z,944.09
2017-01-12T01:51:28.260Z,944.07
2017-01-12T01:52:28.244Z,944.11
2017-01-12T01:53:28.229Z,944.02
2017-01-12T01:54:28.211Z,944.06
2017-01-12T01:55:28.196Z,944.12
2017-01-12T01:56:28.180Z,944.12
2017-01-12T01:57:28.162Z,944.11
2017-01-12T01:58:28.147Z,944.1
2017-01-12T01:59:28.130Z,944.09
2017-01-12T02:00:28.114Z,944.16
2017-01-12T02:01:28.097Z,944.15
2017-01-12T02:02:28.081Z,944.08
2017-01-12T02:03:28.066Z,944.14
2017-01-12T02:04:28.049Z,944.16
2017-01-12T02:05:28.032Z,944.18
2017-01-12T02:06:28.016Z,944.18
2017-01-12T02:07:27.999Z,944.15
2017-01-12T02:08:27.982Z,944.23
2017-01-12T02:09:27.967Z,944.26
2017-01-12T02:10:27.951Z,944.2
2017-01-12T02:11:27.959Z,944.23
2017-01-12T02:12:27.918Z,944.25
2017-01-12T02:13:27.903Z,944.23
2017-01-12T02:14:27.885Z,944.25
2017-01-12T02:15:27.869Z,944.24
2017-01-12T02:16:27.852Z,944.3
2017-01-12T02:17:27.836Z,944.28
2017-01-12T02:18:27.821Z,944.28
2017-01-12T02:19:27.805Z,944.35
2017-01-12T02:20:27.788Z,944.33
2017-01-12T02:21:27.772Z,944.32
2017-01-12T02:22:27.756Z,944.34
2017-01-12T02:23:27.739Z,944.33
2017-01-12T02:24:27.723Z,944.38
2017-01-12T02:25:27.706Z,944.36
2017-01-12T02:26:27.690Z,944.43
2017-01-12T02:27:27.673Z,944.37
2017-01-12T02:28:27.657Z,944.38
2017-01-12T02:29:27.642Z,944.41
2017-01-12T02:30:27.625Z,944.39
2017-01-12T02:31:27.608Z,944.4
2017-01-12T02:32:27.591Z,944.42
2017-01-12T02:33:27.577Z,944.33
2017-01-12T02:34:27.560Z,944.39
2017-01-12T02:35:27.544Z,944.45
2017-01-12T02:36:27.528Z,944.4
2017-01-12T02:37:27.509Z,944.39
2017-01-12T02:38:27.493Z,944.28
2017-01-12T02:39:27.478Z,944.38
2017-01-12T02:40:27.462Z,944.38
2017-01-12T02:41:27.444Z,944.44
2017-01-12T02:42:27.429Z,944.41
2017-01-12T02:43:27.412Z,944.33
2017-01-12T02:44:27.396Z,944.38
2017-01-12T02:45:27.379Z,944.41
2017-01-12T02:46:27.364Z,944.45
2017-01-12T02:47:27.347Z,944.51
2017-01-12T02:48:27.332Z,944.49
2017-01-12T02:49:27.313Z,944.43
2017-01-12T02:50:27.299Z,944.46
2017-01-12T02:51:27.282Z,944.45
2017-01-12T02:52:27.265Z,944.41
2017-01-12T02:53:27.249Z,944.44
2017-01-12T02:54:27.234Z,944.44
2017-01-12T02:55:27.216Z,944.53
2017-01-12T02:56:27.199Z,944.45
2017-01-12T02:57:27.183Z,944.49
2017-01-12T02:58:27.169Z,944.44
2017-01-12T02:59:27.151Z,944.42
2017-01-12T03:00:27.136Z,944.45
2017-01-12T03:01:27.120Z,944.46
2017-01-12T03:02:27.103Z,944.52
2017-01-12T03:03:27.085Z,944.5
2017-01-12T03:04:27.071Z,944.55
2017-01-12T03:05:27.053Z,944.53
2017-01-12T03:06:27.036Z,944.51
2017-01-12T03:07:27.019Z,944.52
2017-01-12T03:08:27.004Z,944.6
2017-01-12T03:09:26.989Z,944.51
2017-01-12T03:10:26.972Z,944.59
2017-01-12T03:11:26.954Z,944.67
2017-01-12T03:12:26.945Z,944.67
2017-01-12T03:13:26.923Z,944.57
2017-01-12T03:14:26.904Z,944.6
2017-01-12T03:15:26.889Z,944.65
2017-01-12T03:16:26.872Z,944.75
2017-01-12T03:17:26.857Z,944.86
2017-01-12T03:18:26.840Z,944.81
2017-01-12T03:19:26.823Z,944.89
2017-01-12T03:20:26.807Z,944.81
2017-01-12T03:21:26.790Z,944.92
2017-01-12T03:22:26.774Z,944.88
2017-01-12T03:23:26.758Z,944.88
2017-01-12T03:24:26.743Z,944.88
2017-01-12T03:25:26.725Z,944.94
2017-01-12T03:26:26.708Z,944.9
2017-01-12T03:27:26.693Z,945.01
2017-01-12T03:28:26.676Z,945.07
2017-01-12T03:29:26.659Z,945.04
2017-01-12T03:30:26.642Z,945.1
2017-01-12T03:31:26.626Z,945.13
2017-01-12T03:32:26.609Z,945.15
2017-01-12T03:33:26.594Z,945.11
2017-01-12T03:34:26.577Z,945.1
2017-01-12T03:35:26.560Z,945.05
2017-01-12T03:36:26.543Z,945.06
2017-01-12T03:37:26.527Z,945.03
2017-01-12T03:38:26.510Z,945.05
2017-01-12T03:39:26.494Z,945.06
2017-01-12T03:40:26.476Z,945.03
2017-01-12T03:41:26.462Z,945.02
2017-01-12T03:42:26.444Z,945.02
2017-01-12T03:43:26.428Z,944.98
2017-01-12T03:44:26.412Z,945.02
2017-01-12T03:45:26.395Z,944.97
2017-01-12T03:46:26.379Z,944.97
2017-01-12T03:47:26.361Z,944.96
2017-01-12T03:48:26.344Z,944.98
2017-01-12T03:49:26.329Z,944.88
2017-01-12T03:50:26.313Z,944.93
2017-01-12T03:51:26.295Z,944.93
2017-01-12T03:52:26.279Z,944.88
2017-01-12T03:53:26.262Z,944.84
2017-01-12T03:54:26.244Z,944.85
2017-01-12T03:55:26.228Z,944.87
2017-01-12T03:56:26.214Z,944.87
2017-01-12T03:57:26.196Z,944.88
2017-01-12T03:58:26.180Z,944.91
2017-01-12T03:59:26.163Z,944.94
2017-01-12T04:00:26.146Z,944.93
2017-01-12T04:01:26.130Z,944.9
2017-01-12T04:02:26.112Z,945.03
2017-01-12T04:03:26.096Z,945.02
2017-01-12T04:04:26.080Z,944.96
2017-01-12T04:05:26.063Z,945.01
2017-01-12T04:06:26.048Z,944.94
2017-01-12T04:07:26.032Z,944.96
2017-01-12T04:08:26.015Z,944.95
2017-01-12T04:09:25.997Z,944.96
2017-01-12T04:10:25.981Z,945.03
2017-01-12T04:11:25.964Z,944.97
2017-01-12T04:12:25.949Z,944.93
2017-01-12T04:13:25.932Z,945
2017-01-12T04:14:25.916Z,944.99
2017-01-12T04:15:25.899Z,944.98
2017-01-12T04:16:25.882Z,944.99
2017-01-12T04:17:25.864Z,945.09
2017-01-12T04:18:25.850Z,944.99
2017-01-12T04:19:25.833Z,945.02
2017-01-12T04:20:25.816Z,945.05
2017-01-12T04:21:25.800Z,945.06
2017-01-12T04:22:25.782Z,945.07
2017-01-12T04:23:25.766Z,945.03
2017-01-12T04:24:25.750Z,945.03
2017-01-12T04:25:25.742Z,945.11
2017-01-12T04:26:25.717Z,945.03
2017-01-12T04:27:25.697Z,945.06
2017-01-12T04:28:25.684Z,945.05
2017-01-12T04:29:25.666Z,945.11
2017-01-12T04:30:25.650Z,945.02
2017-01-12T04:31:25.632Z,945.05
2017-01-12T04:32:25.616Z,945.09
2017-01-12T04:33:25.600Z,945.12
2017-01-12T04:34:25.583Z,945.13
2017-01-12T04:35:25.567Z,945.14
2017-01-12T04:36:25.551Z,945.17
2017-01-12T04:37:25.534Z,945.2
2017-01-12T04:38:25.516Z,945.13
2017-01-12T04:39:25.501Z,945.19
2017-01-12T04:40:25.484Z,945.13
2017-01-12T04:41:25.467Z,945.23
2017-01-12T04:42:25.449Z,945.26
2017-01-12T04:43:25.432Z,945.26
2017-01-12T04:44:25.416Z,945.23
2017-01-12T04:45:25.398Z,945.28
2017-01-12T04:46:25.383Z,945.27
2017-01-12T04:47:25.366Z,945.28
2017-01-12T04:48:25.350Z,945.25
2017-01-12T04:49:25.332Z,945.32
2017-01-12T04:50:25.315Z,945.31
2017-01-12T04:51:25.300Z,945.25
2017-01-12T04:52:25.283Z,945.33
2017-01-12T04:53:25.265Z,945.28
2017-01-12T04:54:25.248Z,945.29
2017-01-12T04:55:25.231Z,945.28
2017-01-12T04:56:25.214Z,945.29
2017-01-12T04:57:25.205Z,945.19
2017-01-12T04:58:25.181Z,945.25
2017-01-12T04:59:25.166Z,945.25
2017-01-12T05:00:25.148Z,945.2
2017-01-12T05:01:25.131Z,945.23
2017-01-12T05:02:25.114Z,945.26
2017-01-12T05:03:25.099Z,945.31
2017-01-12T05:04:25.079Z,945.36
2017-01-12T05:05:25.062Z,945.34
2017-01-12T05:06:25.046Z,945.34
2017-01-12T05:07:25.029Z,945.31
2017-01-12T05:08:25.012Z,945.32
2017-01-12T05:09:24.997Z,945.34
2017-01-12T05:10:24.979Z,945.38
2017-01-12T05:11:24.962Z,945.38
2017-01-12T05:12:24.945Z,945.32
2017-01-12T05:13:24.929Z,945.32
2017-01-12T05:14:24.912Z,945.29
2017-01-12T05:15:24.896Z,945.28
2017-01-12T05:16:24.878Z,945.35
2017-01-12T05:17:24.861Z,945.3
2017-01-12T05:18:24.844Z,945.35
2017-01-12T05:19:24.829Z,945.37
2017-01-12T05:20:24.816Z,945.42
2017-01-12T05:21:24.795Z,945.49
2017-01-12T05:22:24.778Z,945.47
2017-01-12T05:23:24.760Z,945.52
2017-01-12T05:24:24.745Z,945.55
2017-01-12T05:25:24.728Z,945.54
2017-01-12T05:26:24.711Z,945.53
2017-01-12T05:27:24.694Z,945.57
2017-01-12T05:28:24.678Z,945.52
2017-01-12T05:29:24.661Z,945.53
2017-01-12T05:30:24.643Z,945.54
2017-01-12T05:31:24.628Z,945.49
2017-01-12T05:32:24.610Z,945.54
2017-01-12T05:33:24.593Z,945.58
2017-01-12T05:34:24.577Z,945.59
2017-01-12T05:35:24.560Z,945.54
2017-01-12T05:36:24.545Z,945.67
2017-01-12T05:37:24.526Z,945.58
2017-01-12T05:38:24.511Z,945.59
2017-01-12T05:39:24.494Z,945.59
2017-01-12T05:40:24.476Z,945.61
2017-01-12T05:41:24.461Z,945.59
2017-01-12T05:42:24.443Z,945.62
2017-01-12T05:43:24.426Z,945.63
2017-01-12T05:44:24.409Z,945.58
2017-01-12T05:45:24.392Z,945.64
2017-01-12T05:46:24.377Z,945.64
2017-01-12T05:47:24.359Z,945.64
2017-01-12T05:48:24.342Z,945.67
2017-01-12T05:49:24.326Z,945.65
2017-01-12T05:50:24.308Z,945.72
2017-01-12T05:51:24.291Z,945.71
2017-01-12T05:52:24.276Z,945.7
2017-01-12T05:53:24.258Z,945.72
2017-01-12T05:54:24.242Z,945.61
2017-01-12T05:55:24.224Z,945.7
2017-01-12T05:56:24.207Z,945.64
2017-01-12T05:57:24.191Z,945.71
2017-01-12T05:58:24.176Z,945.7
2017-01-12T05:59:24.157Z,945.72
2017-01-12T06:00:24.140Z,945.71
2017-01-12T06:01:24.124Z,945.74
2017-01-12T06:02:24.107Z,945.71
2017-01-12T06:03:24.089Z,945.66
2017-01-12T06:04:24.074Z,945.69
2017-01-12T06:05:24.056Z,945.7
2017-01-12T06:06:24.038Z,945.78
2017-01-12T06:07:24.022Z,945.76
2017-01-12T06:08:24.007Z,945.76
2017-01-12T06:09:23.989Z,945.81
2017-01-12T06:10:23.973Z,945.79
2017-01-12T06:11:23.956Z,945.81
2017-01-12T06:12:23.939Z,945.79
2017-01-12T06:13:23.922Z,945.76
2017-01-12T06:14:23.906Z,945.82
2017-01-12T06:15:23.889Z,945.85
2017-01-12T06:16:23.874Z,945.84
2017-01-12T06:17:23.855Z,945.76
2017-01-12T06:18:23.838Z,945.83
2017-01-12T06:19:23.822Z,945.85
2017-01-12T06:20:23.804Z,945.84
2017-01-12T06:21:23.788Z,945.89
2017-01-12T06:22:23.772Z,945.89
2017-01-12T06:23:23.755Z,945.86
2017-01-12T06:24:23.736Z,945.9
2017-01-12T06:25:23.721Z,945.82
2017-01-12T06:26:23.705Z,945.85
2017-01-12T06:27:23.688Z,945.86
2017-01-12T06:28:23.670Z,945.83
2017-01-12T06:29:23.654Z,946
2017-01-12T06:30:23.637Z,945.97
2017-01-12T06:31:23.619Z,946.01
2017-01-12T06:32:23.603Z,946.04
2017-01-12T06:33:23.587Z,945.97
2017-01-12T06:34:23.569Z,946.12
2017-01-12T06:35:23.552Z,946.16
2017-01-12T06:36:23.536Z,946.17
2017-01-12T06:37:23.519Z,946.19
2017-01-12T06:38:23.502Z,946.16
2017-01-12T06:39:23.484Z,946.2
2017-01-12T06:40:23.468Z,946.19
2017-01-12T06:41:23.452Z,946.22
2017-01-12T06:42:23.434Z,946.26
2017-01-12T06:43:23.417Z,946.24
2017-01-12T06:44:23.401Z,946.23
2017-01-12T06:45:23.383Z,946.3
2017-01-12T06:46:23.365Z,946.35
2017-01-12T06:47:23.349Z,946.27
2017-01-12T06:48:23.332Z,946.36
2017-01-12T06:49:23.316Z,946.3
2017-01-12T06:50:23.298Z,946.32
2017-01-12T06:51:23.281Z,946.39
2017-01-12T06:52:23.266Z,946.34
2017-01-12T06:53:23.246Z,946.37
2017-01-12T06:54:23.230Z,946.37
2017-01-12T06:55:23.213Z,946.39
2017-01-12T06:56:23.197Z,946.49
2017-01-12T06:57:23.180Z,946.43
2017-01-12T06:58:23.162Z,946.44
2017-01-12T06:59:23.146Z,946.41
2017-01-12T07:00:23.128Z,946.45
2017-01-12T07:01:23.110Z,946.44
2017-01-12T07:02:23.096Z,946.46
2017-01-12T07:03:23.077Z,946.56
2017-01-12T07:04:23.060Z,946.52
2017-01-12T07:05:23.044Z,946.52
2017-01-12T07:06:23.027Z,946.54
2017-01-12T07:07:23.011Z,946.52
2017-01-12T07:08:22.993Z,946.49
2017-01-12T07:09:23.020Z,946.49
2017-01-12T07:10:22.961Z,946.55
2017-01-12T07:11:22.944Z,946.52
2017-01-12T07:12:22.925Z,946.52
2017-01-12T07:13:22.909Z,946.53
2017-01-12T07:14:22.891Z,946.57
2017-01-12T07:15:22.874Z,946.57
2017-01-12T07:16:22.857Z,946.52
2017-01-12T07:17:22.890Z,946.52
2017-01-12T07:18:22.825Z,946.54
2017-01-12T07:19:22.808Z,946.55
2017-01-12T07:20:22.791Z,946.53
2017-01-12T07:21:22.774Z,946.51
2017-01-12T07:22:22.759Z,946.51
2017-01-12T07:23:22.741Z,946.48
2017-01-12T07:24:22.725Z,946.55
2017-01-12T07:25:22.709Z,946.56
2017-01-12T07:26:22.690Z,946.49
2017-01-12T07:27:22.674Z,946.51
2017-01-12T07:28:22.657Z,946.56
2017-01-12T07:29:22.643Z,946.58
2017-01-12T07:30:22.625Z,946.59
2017-01-12T07:31:22.607Z,946.61
2017-01-12T07:32:22.592Z,946.59
2017-01-12T07:33:22.575Z,946.59
2017-01-12T07:34:22.557Z,946.64
2017-01-12T07:35:22.542Z,946.66
2017-01-12T07:36:22.525Z,946.63
2017-01-12T07:37:22.508Z,946.6
2017-01-12T07:38:22.491Z,946.57
2017-01-12T07:39:22.475Z,946.62
2017-01-12T07:40:22.458Z,946.58
2017-01-12T07:41:22.441Z,946.69
2017-01-12T07:42:22.425Z,946.43
2017-01-12T07:43:22.409Z,946.65
2017-01-12T07:44:22.391Z,946.65
2017-01-12T07:45:22.375Z,946.67
2017-01-12T07:46:22.360Z,946.75
2017-01-12T07:47:22.342Z,946.65
2017-01-12T07:48:22.325Z,946.64
2017-01-12T07:49:22.309Z,946.55
2017-01-12T07:50:22.294Z,946.67
2017-01-12T07:51:22.276Z,946.71
2017-01-12T07:52:22.260Z,946.68
2017-01-12T07:53:22.242Z,946.69
2017-01-12T07:54:22.228Z,946.68
2017-01-12T07:55:22.211Z,946.67
2017-01-12T07:56:22.194Z,946.66
2017-01-12T07:57:22.177Z,946.68
2017-01-12T07:58:22.162Z,946.76
2017-01-12T07:59:22.144Z,946.8
2017-01-12T08:00:22.127Z,946.74
2017-01-12T08:01:22.113Z,946.78
2017-01-12T08:02:22.096Z,946.77
2017-01-12T08:03:22.077Z,946.75
2017-01-12T08:04:22.064Z,946.74
2017-01-12T08:05:22.048Z,946.71
2017-01-12T08:06:22.029Z,946.8
2017-01-12T08:07:22.014Z,946.71
2017-01-12T08:08:21.998Z,946.79
2017-01-12T08:09:21.981Z,946.82
2017-01-12T08:10:21.964Z,946.74
2017-01-12T08:11:21.948Z,946.77
2017-01-12T08:12:21.932Z,946.81
2017-01-12T08:13:21.917Z,946.88
2017-01-12T08:14:21.900Z,946.86
2017-01-12T08:15:21.883Z,946.89
2017-01-12T08:16:21.867Z,946.89
2017-01-12T08:17:21.850Z,946.91
2017-01-12T08:18:21.834Z,946.9
2017-01-12T08:19:21.818Z,946.87
2017-01-12T08:20:21.806Z,946.92
2017-01-12T08:21:21.785Z,946.86
2017-01-12T08:22:21.769Z,946.83
2017-01-12T08:23:21.755Z,946.85
2017-01-12T08:24:21.738Z,946.88
2017-01-12T08:25:21.720Z,946.89
2017-01-12T08:26:21.705Z,946.93
2017-01-12T08:27:21.688Z,946.89
2017-01-12T08:28:21.673Z,946.93
2017-01-12T08:29:21.656Z,946.98
2017-01-12T08:30:21.642Z,947
2017-01-12T08:31:21.625Z,947.08
2017-01-12T08:32:21.608Z,947.03
2017-01-12T08:33:21.592Z,947.02
2017-01-12T08:34:21.575Z,947.1
2017-01-12T08:35:21.560Z,947.05
2017-01-12T08:36:21.578Z,947.09
2017-01-12T08:37:21.528Z,947.03
2017-01-12T08:38:21.511Z,947.04
2017-01-12T08:39:21.496Z,946.98
2017-01-12T08:40:21.480Z,946.99
2017-01-12T08:41:21.463Z,947
2017-01-12T08:42:21.447Z,946.9
2017-01-12T08:43:21.431Z,946.9
2017-01-12T08:44:21.415Z,946.84
2017-01-12T08:45:21.398Z,946.9
2017-01-12T08:46:21.384Z,946.84
2017-01-12T08:47:21.367Z,946.83
2017-01-12T08:48:21.352Z,946.82
2017-01-12T08:49:21.336Z,946.85
2017-01-12T08:50:21.319Z,946.83
2017-01-12T08:51:21.303Z,946.78
2017-01-12T08:52:21.289Z,946.79
2017-01-12T08:53:21.273Z,946.88
2017-01-12T08:54:21.256Z,946.87
2017-01-12T08:55:21.382Z,946.91
2017-01-12T08:56:21.224Z,946.81
2017-01-12T08:57:21.210Z,946.87
2017-01-12T08:58:21.193Z,946.87
2017-01-12T08:59:21.178Z,946.89
2017-01-12T09:00:21.161Z,946.87
2017-01-12T09:01:21.145Z,946.84
2017-01-12T09:02:21.130Z,946.88
2017-01-12T09:03:21.115Z,946.8
2017-01-12T09:04:21.100Z,946.81
2017-01-12T09:05:21.082Z,946.89
2017-01-12T09:06:21.068Z,946.84
2017-01-12T09:07:21.051Z,946.87
2017-01-12T09:08:21.036Z,946.89
2017-01-12T09:09:21.020Z,946.91
2017-01-12T09:10:21.004Z,946.95
2017-01-12T09:11:20.989Z,947.02
2017-01-12T09:12:20.976Z,946.95
2017-01-12T09:13:20.958Z,946.93
2017-01-12T09:14:20.941Z,947.03
2017-01-12T09:15:20.927Z,947.06
2017-01-12T09:16:20.910Z,947.04
2017-01-12T09:17:20.895Z,947.06
2017-01-12T09:18:20.879Z,947.02
2017-01-12T09:19:20.864Z,947.11
2017-01-12T09:20:20.849Z,947.1
2017-01-12T09:21:20.837Z,947.09
2017-01-12T09:22:20.819Z,947.01
2017-01-12T09:23:20.803Z,947.11
2017-01-12T09:24:20.789Z,947.15
2017-01-12T09:25:20.773Z,947.09
2017-01-12T09:26:20.758Z,947.16
2017-01-12T09:27:20.742Z,947.2
2017-01-12T09:28:20.726Z,947.27
2017-01-12T09:29:20.712Z,947.28
2017-01-12T09:30:20.695Z,947.22
2017-01-12T09:31:20.681Z,947.21
2017-01-12T09:32:20.666Z,947.27
2017-01-12T09:33:20.651Z,947.26
2017-01-12T09:34:20.635Z,947.3
2017-01-12T09:35:20.619Z,947.32
2017-01-12T09:36:20.605Z,947.29
2017-01-12T09:37:20.589Z,947.22
2017-01-12T09:38:20.573Z,947.25
2017-01-12T09:39:20.558Z,947.24
2017-01-12T09:40:20.544Z,947.27
2017-01-12T09:41:20.527Z,947.2
2017-01-12T09:42:20.512Z,947.22
2017-01-12T09:43:20.497Z,947.18
2017-01-12T09:44:20.483Z,947.21
2017-01-12T09:45:20.470Z,947.18
2017-01-12T09:46:20.452Z,947.01
2017-01-12T09:47:20.435Z,947.05
2017-01-12T09:48:20.421Z,947.03
2017-01-12T09:49:20.404Z,946.92
2017-01-12T09:50:20.389Z,946.98
2017-01-12T09:51:20.373Z,946.97
2017-01-12T09:52:20.358Z,947
2017-01-12T09:53:20.343Z,946.94
2017-01-12T09:54:20.326Z,946.83
2017-01-12T09:55:20.312Z,946.86
2017-01-12T09:56:20.296Z,946.83
2017-01-12T09:57:20.280Z,946.86
2017-01-12T09:58:20.266Z,946.78
2017-01-12T09:59:20.251Z,946.87
2017-01-12T10:00:20.233Z,946.9
2017-01-12T10:01:20.219Z,946.92
2017-01-12T10:02:20.202Z,946.88
2017-01-12T10:03:20.187Z,946.9
2017-01-12T10:04:20.171Z,946.88
2017-01-12T10:05:20.156Z,946.95
2017-01-12T10:06:20.142Z,946.98
2017-01-12T10:07:20.127Z,946.96
2017-01-12T10:08:20.109Z,946.91
2017-01-12T10:09:20.095Z,946.97
2017-01-12T10:10:20.081Z,946.97
2017-01-12T10:11:20.063Z,946.9
2017-01-12T10:12:20.050Z,946.86
2017-01-12T10:13:20.033Z,946.87
2017-01-12T10:14:20.018Z,946.85
2017-01-12T10:15:20.002Z,946.91
2017-01-12T10:16:19.988Z,946.89
2017-01-12T10:17:19.975Z,946.81
2017-01-12T10:18:19.957Z,946.9
2017-01-12T10:19:19.941Z,946.84
2017-01-12T10:20:19.927Z,946.85
2017-01-12T10:21:19.912Z,946.78
2017-01-12T10:22:19.897Z,946.79
2017-01-12T10:23:19.881Z,946.73
2017-01-12T10:24:19.867Z,946.72
2017-01-12T10:25:19.850Z,946.73
2017-01-12T10:26:19.837Z,946.7
2017-01-12T10:27:19.821Z,946.72
2017-01-12T10:28:19.807Z,946.74
2017-01-12T10:29:19.790Z,946.79
2017-01-12T10:30:19.777Z,946.73
2017-01-12T10:31:19.761Z,946.76
2017-01-12T10:32:19.746Z,946.8
2017-01-12T10:33:19.731Z,946.77
2017-01-12T10:34:19.716Z,946.75
2017-01-12T10:35:19.702Z,946.8
2017-01-12T10:36:19.687Z,946.81
2017-01-12T10:37:19.674Z,946.77
2017-01-12T10:38:19.658Z,946.73
2017-01-12T10:39:19.644Z,946.68
2017-01-12T10:40:19.628Z,946.79
2017-01-12T10:41:19.612Z,946.71
2017-01-12T10:42:19.599Z,946.66
2017-01-12T10:43:19.583Z,946.65
2017-01-12T10:44:19.567Z,946.72
2017-01-12T10:45:19.552Z,946.73
2017-01-12T10:46:19.538Z,946.74
2017-01-12T10:47:19.523Z,946.66
2017-01-12T10:48:19.507Z,946.69
2017-01-12T10:49:19.493Z,946.61
2017-01-12T10:50:19.478Z,946.71
2017-01-12T10:51:19.461Z,946.69
2017-01-12T10:52:19.446Z,946.68
2017-01-12T10:53:19.432Z,946.59
2017-01-12T10:54:19.416Z,946.72
2017-01-12T10:55:19.401Z,946.73
2017-01-12T10:56:19.388Z,946.62
2017-01-12T10:57:19.371Z,946.65
2017-01-12T10:58:19.355Z,946.48
2017-01-12T10:59:19.340Z,946.63
2017-01-12T11:00:19.325Z,946.73
2017-01-12T11:01:19.310Z,946.67
2017-01-12T11:02:19.294Z,946.69
2017-01-12T11:03:19.277Z,946.83
2017-01-12T11:04:19.262Z,946.84
2017-01-12T11:05:19.245Z,946.79
2017-01-12T11:06:19.231Z,946.76
2017-01-12T11:07:19.214Z,946.81
2017-01-12T11:08:19.200Z,946.77
2017-01-12T11:09:19.183Z,946.79
2017-01-12T11:10:19.168Z,946.84
2017-01-12T11:11:19.153Z,946.8
2017-01-12T11:12:19.137Z,946.69
2017-01-12T11:13:19.121Z,946.82
2017-01-12T11:14:19.105Z,946.83
2017-01-12T11:15:19.104Z,946.82
2017-01-12T11:16:19.073Z,946.69
2017-01-12T11:17:19.058Z,946.7
2017-01-12T11:18:19.043Z,946.63
2017-01-12T11:19:19.027Z,946.64
2017-01-12T11:20:19.010Z,946.56
2017-01-12T11:21:18.997Z,946.63
2017-01-12T11:22:18.979Z,946.59
2017-01-12T11:23:18.965Z,946.63
2017-01-12T11:24:18.948Z,946.6
2017-01-12T11:25:18.932Z,946.61
2017-01-12T11:26:18.918Z,946.54
2017-01-12T11:27:18.900Z,946.57
2017-01-12T11:28:18.885Z,946.54
2017-01-12T11:29:18.868Z,946.45
2017-01-12T11:30:18.856Z,946.56
2017-01-12T11:31:18.839Z,946.52
2017-01-12T11:32:18.823Z,946.45
2017-01-12T11:33:18.806Z,946.49
2017-01-12T11:34:18.792Z,946.47
2017-01-12T11:35:18.774Z,946.53
2017-01-12T11:36:18.761Z,946.47
2017-01-12T11:37:18.743Z,946.5
2017-01-12T11:38:18.728Z,946.45
2017-01-12T11:39:18.711Z,946.57
2017-01-12T11:40:18.696Z,946.48
2017-01-12T11:41:18.681Z,946.48
2017-01-12T11:42:18.664Z,946.53
2017-01-12T11:43:18.648Z,946.52
2017-01-12T11:44:18.631Z,946.49
2017-01-12T11:45:18.617Z,946.46
2017-01-12T11:46:18.599Z,946.44
2017-01-12T11:47:18.585Z,946.41
2017-01-12T11:48:18.568Z,946.39
2017-01-12T11:49:18.552Z,946.27
2017-01-12T11:50:18.536Z,946.28
2017-01-12T11:51:18.521Z,946.28
2017-01-12T11:52:18.505Z,946.26
2017-01-12T11:53:18.489Z,946.28
2017-01-12T11:54:18.473Z,946.27
2017-01-12T11:55:18.459Z,946.27
2017-01-12T11:56:18.443Z,946.27
2017-01-12T11:57:18.425Z,946.29
2017-01-12T11:58:18.411Z,946.31
2017-01-12T11:59:18.395Z,946.3
2017-01-12T12:00:18.458Z,946.31
2017-01-12T12:01:18.496Z,946.28
2017-01-12T12:02:18.652Z,946.29
2017-01-12T12:03:18.332Z,946.23
2017-01-12T12:04:18.317Z,946.28
2017-01-12T12:05:18.300Z,946.28
2017-01-12T12:06:18.286Z,946.2
2017-01-12T12:07:18.269Z,946.22
2017-01-12T12:08:18.253Z,946.21
2017-01-12T12:09:18.237Z,946.23
2017-01-12T12:10:18.221Z,946.21
2017-01-12T12:11:18.206Z,946.22
2017-01-12T12:12:18.190Z,946.26
2017-01-12T12:13:18.175Z,946.15
2017-01-12T12:14:18.159Z,946.12
2017-01-12T12:15:18.144Z,946.17
2017-01-12T12:16:18.128Z,946.09
2017-01-12T12:17:18.114Z,946.15
2017-01-12T12:18:18.098Z,946.17
2017-01-12T12:19:18.082Z,946.16
2017-01-12T12:20:18.066Z,946.22
2017-01-12T12:21:18.052Z,946.18
2017-01-12T12:22:18.238Z,946.13
2017-01-12T12:23:18.020Z,946.15
2017-01-12T12:24:18.005Z,946.17
2017-01-12T12:25:17.989Z,946.13
2017-01-12T12:26:17.974Z,946.15
2017-01-12T12:27:17.959Z,946.19
2017-01-12T12:28:17.943Z,946.16
2017-01-12T12:29:17.929Z,946.16
2017-01-12T12:30:17.914Z,946.14
2017-01-12T12:31:17.899Z,946.11